Time;durP1;ratioP1;P1;durP2;ratioP2;P2;SDS_P1;SDS_P2;PMS_P1;PMS_P2;Temp;Humidity;BMP_temperature;BMP_pressure;BME280_temperature;BME280_humidity;BME280_pressure;Samples;Min_cycle;Max_cycle;Signal;HPM_P1;HPM_P2
2022/08/21 00:00:25;;;;;;;10.88;2.92;;;14.40;99.90;;;;;;4998180;28;20022;-88
2022/08/21 00:02:54;;;;;;;6.60;2.67;;;14.40;99.90;;;;;;4996498;28;20132;-88
2022/08/21 00:05:21;;;;;;;7.75;2.90;;;14.40;99.90;;;;;;4998223;28;20021;-88
2022/08/21 00:07:47;;;;;;;6.18;3.33;;;14.40;99.90;;;;;;4997440;28;20029;-88
2022/08/21 00:10:12;;;;;;;8.68;3.38;;;14.30;99.90;;;;;;4997941;28;20029;-88
2022/08/21 00:12:39;;;;;;;8.00;3.30;;;14.30;99.90;;;;;;5008586;28;20021;-88
2022/08/21 00:15:07;;;;;;;9.77;3.83;;;14.30;99.90;;;;;;5010282;28;20456;-88
2022/08/21 00:17:33;;;;;;;6.75;3.78;;;14.30;99.90;;;;;;4997197;28;20026;-88
2022/08/21 00:19:58;;;;;;;8.50;3.40;;;14.30;99.90;;;;;;4984120;28;20030;-88
2022/08/21 00:22:24;;;;;;;8.85;3.55;;;14.30;99.90;;;;;;5003813;28;20022;-88
2022/08/21 00:24:50;;;;;;;8.52;3.88;;;14.20;99.90;;;;;;4998020;28;20044;-88
2022/08/21 00:27:15;;;;;;;12.75;3.95;;;14.20;99.90;;;;;;4997603;28;20025;-88
2022/08/21 00:29:41;;;;;;;10.07;4.18;;;14.20;99.90;;;;;;4997894;28;20081;-88
2022/08/21 00:32:07;;;;;;;8.15;3.90;;;14.20;99.90;;;;;;5001128;28;20026;-88
2022/08/21 00:34:32;;;;;;;6.57;4.20;;;14.10;99.90;;;;;;4996698;28;20022;-88
2022/08/21 00:36:58;;;;;;;8.98;4.45;;;14.10;99.90;;;;;;4991099;28;20029;-89
2022/08/21 00:39:23;;;;;;;7.82;4.05;;;14.10;99.90;;;;;;5002865;28;20045;-88
2022/08/21 00:41:49;;;;;;;6.00;4.25;;;14.10;99.90;;;;;;5017496;28;20021;-88
2022/08/21 00:44:15;;;;;;;11.70;4.75;;;14.10;99.90;;;;;;5017706;28;20026;-88
2022/08/21 00:46:42;;;;;;;10.48;4.43;;;14.00;99.90;;;;;;4996588;28;20124;-88
2022/08/21 00:49:11;;;;;;;7.72;5.00;;;14.00;99.90;;;;;;4982661;28;20022;-87
2022/08/21 00:51:46;;;;;;;15.32;5.70;;;14.00;99.90;;;;;;4997118;28;20534;-88
2022/08/21 00:54:13;;;;;;;10.88;4.93;;;14.00;99.90;;;;;;4997266;28;20029;-87
2022/08/21 00:56:39;;;;;;;11.55;5.07;;;14.00;99.90;;;;;;4978759;28;20072;-88
2022/08/21 00:59:06;;;;;;;8.63;4.75;;;14.00;99.90;;;;;;4991760;28;20450;-88
2022/08/21 01:01:31;;;;;;;9.30;4.90;;;13.90;99.90;;;;;;4996654;28;20030;-88
2022/08/21 01:03:57;;;;;;;11.43;5.65;;;13.90;99.90;;;;;;4997426;28;20037;-87
2022/08/21 01:06:22;;;;;;;12.35;5.90;;;13.90;99.90;;;;;;4996805;28;20061;-88
2022/08/21 01:08:48;;;;;;;8.23;4.80;;;13.90;99.90;;;;;;4996696;28;20030;-88
2022/08/21 01:11:15;;;;;;;10.60;5.03;;;14.00;99.90;;;;;;5014785;28;20026;-87
2022/08/21 01:13:45;;;;;;;7.57;4.55;;;13.90;99.90;;;;;;4996624;28;20034;-87
2022/08/21 01:16:15;;;;;;;6.63;3.47;;;13.90;99.90;;;;;;5011959;28;20084;-88
2022/08/21 01:18:40;;;;;;;6.65;4.40;;;13.90;99.90;;;;;;4993114;28;20111;-88
2022/08/21 01:21:13;;;;;;;7.45;3.78;;;13.90;99.90;;;;;;4996390;28;20030;-88
2022/08/21 01:23:42;;;;;;;5.95;4.18;;;13.90;99.90;;;;;;4996490;28;20034;-87
2022/08/21 01:26:08;;;;;;;11.05;4.10;;;13.90;99.90;;;;;;4996038;28;20482;-88
2022/08/21 01:28:43;;;;;;;8.07;5.47;;;13.90;99.90;;;;;;5014091;28;20080;-87
2022/08/21 01:31:11;;;;;;;8.05;4.60;;;13.80;99.90;;;;;;4996514;28;20061;-88
2022/08/21 01:33:37;;;;;;;8.50;4.75;;;13.80;99.90;;;;;;5013798;28;20127;-88
2022/08/21 01:36:03;;;;;;;11.57;6.00;;;13.80;99.90;;;;;;4993080;28;20030;-88
2022/08/21 01:38:29;;;;;;;8.40;5.72;;;13.80;99.90;;;;;;4994397;28;20405;-88
2022/08/21 01:40:54;;;;;;;14.07;6.15;;;13.80;99.90;;;;;;4982191;28;20019;-88
2022/08/21 01:43:20;;;;;;;7.53;5.35;;;13.70;99.90;;;;;;4995812;28;20563;-88
2022/08/21 01:45:45;;;;;;;9.75;5.43;;;13.70;99.90;;;;;;4995984;28;20121;-87
2022/08/21 01:48:11;;;;;;;10.85;5.32;;;13.70;99.90;;;;;;4990193;28;20415;-87
2022/08/21 01:50:37;;;;;;;7.97;3.88;;;13.70;99.90;;;;;;4988855;28;20030;-87
2022/08/21 01:53:03;;;;;;;8.90;5.30;;;13.70;99.90;;;;;;4989762;28;20501;-88
2022/08/21 01:55:28;;;;;;;9.00;4.75;;;13.60;99.90;;;;;;4996015;28;20026;-87
2022/08/21 01:57:54;;;;;;;23.02;7.80;;;13.60;99.90;;;;;;4983576;28;20141;-87
2022/08/21 02:00:24;;;;;;;9.30;6.72;;;13.60;99.90;;;;;;4998527;28;20034;-87
2022/08/21 02:02:50;;;;;;;9.55;6.28;;;13.60;99.90;;;;;;4999426;28;20057;-87
2022/08/21 02:05:16;;;;;;;10.80;6.68;;;13.60;99.90;;;;;;4990675;28;20022;-87
2022/08/21 02:07:48;;;;;;;12.55;8.20;;;13.60;99.90;;;;;;4984566;28;20022;-87
2022/08/21 02:10:16;;;;;;;14.48;8.18;;;13.60;99.90;;;;;;5014142;28;20097;-87
2022/08/21 02:12:42;;;;;;;13.23;7.97;;;13.60;99.90;;;;;;4997613;28;20036;-87
2022/08/21 02:15:09;;;;;;;11.18;8.05;;;13.60;99.90;;;;;;4998019;28;20030;-87
2022/08/21 02:17:45;;;;;;;16.45;8.07;;;13.60;99.90;;;;;;4998367;28;20053;-87
2022/08/21 02:20:16;;;;;;;14.80;8.10;;;13.60;99.90;;;;;;5015578;28;20508;-86
2022/08/21 02:22:41;;;;;;;12.80;8.35;;;13.50;99.90;;;;;;5017929;28;20097;-88
2022/08/21 02:25:07;;;;;;;9.82;7.95;;;13.50;99.90;;;;;;5021877;28;20121;-87
2022/08/21 02:27:44;;;;;;;14.38;8.05;;;13.50;99.90;;;;;;5015499;28;20036;-88
2022/08/21 02:30:22;;;;;;;10.93;8.65;;;13.50;99.90;;;;;;4998751;28;20032;-87
2022/08/21 02:32:48;;;;;;;10.43;7.35;;;13.50;99.90;;;;;;5011016;28;20026;-87
2022/08/21 02:35:14;;;;;;;10.88;6.85;;;13.40;99.90;;;;;;5015370;28;20036;-87
2022/08/21 02:37:54;;;;;;;14.90;7.70;;;13.40;99.90;;;;;;4978692;28;20022;-87
2022/08/21 02:40:24;;;;;;;12.30;8.07;;;13.40;99.90;;;;;;5014102;28;20081;-87
2022/08/21 02:42:50;;;;;;;12.63;8.35;;;13.40;99.90;;;;;;4990735;28;20026;-87
2022/08/21 02:45:17;;;;;;;14.43;8.18;;;13.30;99.90;;;;;;4989614;28;20432;-87
2022/08/21 02:47:55;;;;;;;12.40;7.82;;;13.30;99.90;;;;;;4994749;28;20117;-88
2022/08/21 02:50:28;;;;;;;14.70;8.13;;;13.30;99.90;;;;;;4997833;28;20390;-87
2022/08/21 02:52:54;;;;;;;12.15;8.45;;;13.30;99.90;;;;;;4997356;28;20044;-87
2022/08/21 02:55:22;;;;;;;12.50;8.15;;;13.30;99.90;;;;;;5021132;28;20042;-87
2022/08/21 02:57:48;;;;;;;12.15;8.23;;;13.30;99.90;;;;;;4998428;28;20025;-87
2022/08/21 03:00:15;;;;;;;11.80;8.43;;;13.20;99.90;;;;;;5015089;28;20069;-87
2022/08/21 03:02:41;;;;;;;10.55;7.20;;;13.20;99.90;;;;;;5014384;28;20057;-87
2022/08/21 03:05:09;;;;;;;13.18;8.85;;;13.20;99.90;;;;;;4998079;28;20117;-87
2022/08/21 03:07:36;;;;;;;13.13;8.63;;;13.20;99.90;;;;;;4997283;28;20458;-87
2022/08/21 03:10:03;;;;;;;10.30;7.70;;;13.10;99.90;;;;;;5000426;28;20041;-87
2022/08/21 03:12:28;;;;;;;13.43;8.68;;;13.10;99.90;;;;;;5003523;28;20026;-87
2022/08/21 03:14:54;;;;;;;13.57;8.93;;;13.10;99.90;;;;;;5009494;28;20045;-87
2022/08/21 03:17:19;;;;;;;11.55;8.00;;;13.10;99.90;;;;;;4999606;28;20026;-87
2022/08/21 03:19:45;;;;;;;16.67;7.65;;;13.00;99.90;;;;;;5001072;28;20064;-87
2022/08/21 03:22:10;;;;;;;11.10;8.02;;;13.00;99.90;;;;;;5014193;28;20386;-87
2022/08/21 03:24:36;;;;;;;10.18;6.53;;;13.00;99.90;;;;;;5017156;28;20034;-87
2022/08/21 03:27:01;;;;;;;9.13;6.43;;;13.00;99.90;;;;;;5001613;28;20025;-87
2022/08/21 03:29:27;;;;;;;11.10;7.28;;;13.00;99.90;;;;;;5001286;28;20037;-87
2022/08/21 03:31:53;;;;;;;12.43;6.72;;;12.90;99.90;;;;;;5000952;28;20025;-87
2022/08/21 03:34:20;;;;;;;10.25;7.55;;;12.90;99.90;;;;;;5006134;28;20030;-87
2022/08/21 03:36:45;;;;;;;11.73;8.45;;;12.90;99.90;;;;;;5007919;28;20029;-86
2022/08/21 03:39:11;;;;;;;13.40;8.73;;;12.90;99.90;;;;;;5001060;28;20048;-87
2022/08/21 03:41:36;;;;;;;13.40;8.95;;;12.80;99.90;;;;;;5011300;28;20029;-87
2022/08/21 03:44:02;;;;;;;14.40;9.50;;;12.80;99.90;;;;;;5017282;28;20022;-87
2022/08/21 03:46:28;;;;;;;13.63;8.48;;;12.90;99.90;;;;;;4998177;28;20029;-87
2022/08/21 03:48:53;;;;;;;13.63;9.40;;;12.90;99.90;;;;;;5016335;28;20045;-87
2022/08/21 03:51:19;;;;;;;21.95;10.15;;;12.80;99.90;;;;;;4997379;28;20022;-87
2022/08/21 03:53:45;;;;;;;19.95;9.98;;;12.80;99.90;;;;;;4992248;28;20030;-87
2022/08/21 03:56:11;;;;;;;13.48;10.25;;;12.80;99.90;;;;;;4999999;28;20032;-87
2022/08/21 03:58:38;;;;;;;15.77;9.68;;;12.80;99.90;;;;;;5015222;28;20065;-87
2022/08/21 04:01:06;;;;;;;14.25;9.60;;;12.80;99.90;;;;;;5000187;28;20062;-87
2022/08/21 04:03:33;;;;;;;12.70;10.27;;;12.80;99.90;;;;;;5015255;28;20054;-86
2022/08/21 04:05:59;;;;;;;11.80;8.77;;;12.70;99.90;;;;;;4998273;28;20115;-87
2022/08/21 04:08:25;;;;;;;16.50;8.63;;;12.70;99.90;;;;;;4989463;28;20026;-86
2022/08/21 04:10:54;;;;;;;11.73;8.25;;;12.70;99.90;;;;;;4999562;28;20469;-86
2022/08/21 04:13:20;;;;;;;14.50;7.43;;;12.60;99.90;;;;;;4995184;28;20138;-87
2022/08/21 04:15:45;;;;;;;16.02;7.75;;;12.60;99.90;;;;;;4999824;28;20037;-87
2022/08/21 04:18:11;;;;;;;8.48;6.47;;;12.60;99.90;;;;;;4999314;28;20049;-87
2022/08/21 04:20:37;;;;;;;8.43;7.00;;;12.60;99.90;;;;;;4999693;28;20022;-87
2022/08/21 04:23:03;;;;;;;10.98;5.95;;;12.50;99.90;;;;;;4989529;28;20058;-86
2022/08/21 04:25:29;;;;;;;12.35;5.85;;;12.50;99.90;;;;;;4999772;28;20084;-87
2022/08/21 04:27:55;;;;;;;9.68;5.97;;;12.40;99.90;;;;;;5000532;28;20022;-88
2022/08/21 04:30:20;;;;;;;6.82;6.05;;;12.40;99.90;;;;;;5000347;28;20034;-86
2022/08/21 04:32:48;;;;;;;11.23;6.50;;;12.40;99.90;;;;;;4998501;28;20117;-87
2022/08/21 04:35:16;;;;;;;7.45;4.93;;;12.40;99.90;;;;;;5000251;28;20108;-86
2022/08/21 04:37:41;;;;;;;11.75;6.90;;;12.40;99.90;;;;;;4999610;28;20106;-87
2022/08/21 04:40:09;;;;;;;9.85;6.78;;;12.40;99.90;;;;;;5000221;28;20026;-87
2022/08/21 04:42:44;;;;;;;10.02;7.07;;;12.40;99.90;;;;;;5000391;28;20029;-86
2022/08/21 04:45:15;;;;;;;17.70;7.28;;;12.40;99.90;;;;;;5000255;28;20026;-87
2022/08/21 04:47:40;;;;;;;11.93;7.95;;;12.40;99.90;;;;;;4998418;28;20503;-86
2022/08/21 04:50:06;;;;;;;12.68;7.50;;;12.40;99.90;;;;;;5013675;28;20109;-86
2022/08/21 04:52:32;;;;;;;12.48;6.85;;;12.40;99.90;;;;;;4998794;28;20494;-86
2022/08/21 04:54:58;;;;;;;13.45;7.78;;;12.40;99.90;;;;;;4997993;28;20034;-86
2022/08/21 04:57:23;;;;;;;10.15;7.32;;;12.40;99.90;;;;;;4999212;28;20076;-87
2022/08/21 04:59:51;;;;;;;6.25;5.30;;;12.40;99.90;;;;;;4998592;28;20461;-87
2022/08/21 05:02:17;;;;;;;8.68;5.55;;;12.40;99.90;;;;;;5018422;28;20052;-86
2022/08/21 05:04:50;;;;;;;10.88;7.28;;;12.40;99.90;;;;;;5018662;28;20057;-86
2022/08/21 05:07:25;;;;;;;12.77;8.82;;;12.40;99.90;;;;;;5016969;28;20017;-87
2022/08/21 05:09:51;;;;;;;11.05;9.10;;;12.50;99.90;;;;;;5013810;28;20045;-87
2022/08/21 05:12:17;;;;;;;18.73;10.75;;;12.40;99.90;;;;;;5028706;28;20022;-87
2022/08/21 05:14:42;;;;;;;18.50;10.65;;;12.50;99.90;;;;;;5014999;28;20036;-86
2022/08/21 05:17:09;;;;;;;17.58;11.40;;;12.60;99.90;;;;;;5013015;28;20022;-86
2022/08/21 05:19:35;;;;;;;18.58;12.10;;;12.60;99.90;;;;;;5014531;28;20041;-86
2022/08/21 05:22:01;;;;;;;17.33;12.00;;;12.70;99.90;;;;;;5018018;28;20390;-86
2022/08/21 05:24:27;;;;;;;20.02;12.23;;;12.70;99.90;;;;;;5018092;28;20033;-87
2022/08/21 05:26:53;;;;;;;22.35;13.30;;;12.80;99.90;;;;;;5008009;28;20577;-87
2022/08/21 05:29:19;;;;;;;20.48;13.48;;;12.80;99.90;;;;;;5017681;28;20029;-87
2022/08/21 05:31:46;;;;;;;21.58;13.43;;;12.90;99.90;;;;;;5014514;28;20393;-87
2022/08/21 05:34:13;;;;;;;17.75;12.93;;;12.90;99.90;;;;;;5032195;28;20057;-86
2022/08/21 05:36:39;;;;;;;19.98;13.57;;;13.00;99.90;;;;;;5016427;28;20075;-87
2022/08/21 05:39:04;;;;;;;19.08;13.25;;;13.10;99.90;;;;;;5009231;28;20494;-86
2022/08/21 05:41:30;;;;;;;15.98;12.23;;;13.20;99.90;;;;;;5016862;28;20032;-87
2022/08/21 05:43:56;;;;;;;21.38;14.25;;;13.20;99.90;;;;;;5017423;28;20057;-87
2022/08/21 05:46:21;;;;;;;16.80;13.02;;;13.30;99.90;;;;;;5025392;28;20024;-88
2022/08/21 05:48:47;;;;;;;18.55;12.95;;;13.40;99.90;;;;;;5013677;28;20036;-88
2022/08/21 05:51:14;;;;;;;15.48;12.88;;;13.50;99.90;;;;;;5028057;28;20055;-87
2022/08/21 05:53:41;;;;;;;17.58;13.13;;;13.60;99.90;;;;;;5008946;28;20030;-88
2022/08/21 05:56:08;;;;;;;19.65;12.65;;;13.70;99.90;;;;;;5031821;28;20144;-87
2022/08/21 05:58:34;;;;;;;18.00;12.65;;;13.80;99.90;;;;;;5030816;28;20481;-88
2022/08/21 06:01:02;;;;;;;21.02;12.70;;;13.90;99.90;;;;;;5005976;28;20100;-87
2022/08/21 06:03:34;;;;;;;18.52;12.45;;;14.00;99.90;;;;;;5015065;28;20049;-88
2022/08/21 06:06:01;;;;;;;18.38;11.93;;;14.20;99.90;;;;;;5014922;28;20026;-87
2022/08/21 06:08:27;;;;;;;19.23;12.48;;;14.30;99.90;;;;;;5032450;28;20032;-88
2022/08/21 06:10:55;;;;;;;15.35;11.50;;;14.50;99.90;;;;;;5016629;28;20064;-87
2022/08/21 06:13:22;;;;;;;14.23;10.55;;;14.60;99.90;;;;;;5018784;28;20021;-88
2022/08/21 06:15:48;;;;;;;16.38;11.70;;;14.70;99.90;;;;;;5017710;28;20029;-88
2022/08/21 06:18:14;;;;;;;16.63;10.80;;;14.80;99.90;;;;;;5016222;28;20493;-88
2022/08/21 06:20:40;;;;;;;19.75;10.75;;;14.90;99.90;;;;;;5018131;28;20032;-88
2022/08/21 06:23:06;;;;;;;18.60;12.05;;;15.00;99.90;;;;;;5031860;28;20079;-85
2022/08/21 06:25:32;;;;;;;18.75;11.65;;;15.10;99.90;;;;;;5035590;28;20029;-87
2022/08/21 06:28:08;;;;;;;26.45;11.15;;;15.20;99.90;;;;;;5017936;28;20033;-86
2022/08/21 06:30:35;;;;;;;17.67;10.38;;;15.30;99.90;;;;;;5017121;28;20113;-86
2022/08/21 06:33:02;;;;;;;18.48;10.98;;;15.40;99.90;;;;;;5014436;28;20028;-87
2022/08/21 06:35:29;;;;;;;14.77;10.10;;;15.50;99.90;;;;;;5016697;28;20465;-87
2022/08/21 06:37:55;;;;;;;15.85;9.38;;;15.60;99.90;;;;;;5017215;28;20061;-87
2022/08/21 06:40:21;;;;;;;12.32;9.15;;;15.80;99.90;;;;;;5015858;28;20037;-86
2022/08/21 06:42:46;;;;;;;17.90;9.50;;;15.80;99.90;;;;;;5016041;28;20033;-86
2022/08/21 06:45:12;;;;;;;18.63;9.85;;;16.00;99.90;;;;;;5010936;28;20026;-87
2022/08/21 06:47:38;;;;;;;13.50;8.50;;;16.10;99.90;;;;;;5033980;28;20021;-86
2022/08/21 06:50:07;;;;;;;15.63;8.77;;;16.20;99.90;;;;;;5026431;28;20389;-86
2022/08/21 06:52:33;;;;;;;14.55;7.95;;;16.30;99.90;;;;;;5037061;28;20075;-86
2022/08/21 06:54:58;;;;;;;12.60;7.60;;;16.40;99.90;;;;;;5016620;28;20474;-87
2022/08/21 06:57:25;;;;;;;14.20;8.15;;;16.50;99.90;;;;;;5038909;28;20026;-87
2022/08/21 06:59:51;;;;;;;14.88;8.07;;;16.50;99.90;;;;;;5020719;28;20086;-86
2022/08/21 07:02:17;;;;;;;17.52;7.88;;;16.70;99.90;;;;;;5011172;28;20128;-86
2022/08/21 07:04:42;;;;;;;14.55;7.35;;;16.70;99.90;;;;;;5020849;28;20029;-83
2022/08/21 07:07:08;;;;;;;18.95;7.70;;;16.80;99.90;;;;;;5012470;28;20335;-88
2022/08/21 07:09:33;;;;;;;14.32;7.68;;;16.90;99.90;;;;;;5042055;28;20152;-88
2022/08/21 07:11:59;;;;;;;15.05;7.45;;;17.00;99.90;;;;;;5033710;28;20029;-87
2022/08/21 07:14:25;;;;;;;14.70;7.72;;;17.20;99.90;;;;;;5020855;28;20056;-88
2022/08/21 07:16:51;;;;;;;15.73;7.03;;;17.30;99.90;;;;;;5021252;28;20481;-88
2022/08/21 07:19:17;;;;;;;11.02;6.20;;;17.40;99.90;;;;;;5021566;28;20041;-89
2022/08/21 07:21:43;;;;;;;15.77;7.03;;;17.40;99.90;;;;;;5020821;28;20468;-88
2022/08/21 07:24:09;;;;;;;13.40;6.70;;;17.50;99.90;;;;;;5021027;28;20040;-88
2022/08/21 07:26:35;;;;;;;10.00;6.25;;;17.70;99.90;;;;;;5015343;28;20033;-88
2022/08/21 07:29:00;;;;;;;12.63;5.88;;;17.80;99.90;;;;;;5011064;28;20032;-88
2022/08/21 07:31:28;;;;;;;12.75;6.40;;;17.90;99.90;;;;;;5019934;28;20029;-88
2022/08/21 07:33:54;;;;;;;15.43;6.40;;;18.10;99.90;;;;;;5006549;28;20029;-88
2022/08/21 07:36:19;;;;;;;13.60;6.15;;;18.10;99.90;;;;;;5021405;28;20022;-89
2022/08/21 07:38:45;;;;;;;14.25;5.97;;;18.20;99.90;;;;;;5017952;28;20030;-87
2022/08/21 07:41:17;;;;;;;14.80;5.95;;;18.30;99.90;;;;;;5029651;28;20018;-89
2022/08/21 07:43:43;;;;;;;11.57;6.00;;;18.50;99.90;;;;;;5021846;28;20026;-88
2022/08/21 07:46:09;;;;;;;9.95;6.22;;;18.60;99.90;;;;;;5034891;28;20033;-89
2022/08/21 07:48:35;;;;;;;16.13;6.18;;;18.70;99.90;;;;;;5021221;28;20071;-89
2022/08/21 07:51:09;;;;;;;17.15;5.22;;;18.80;99.90;;;;;;5020854;28;20067;-89
2022/08/21 07:53:36;;;;;;;14.88;5.65;;;18.80;99.90;;;;;;5021047;28;20092;-89
2022/08/21 07:56:03;;;;;;;9.93;5.40;;;18.70;99.90;;;;;;5019883;28;20025;-89
2022/08/21 07:58:28;;;;;;;16.48;5.93;;;18.70;99.90;;;;;;5020672;28;20561;-89
2022/08/21 08:00:54;;;;;;;11.77;5.03;;;18.60;99.90;;;;;;5020280;28;20084;-88
2022/08/21 08:03:20;;;;;;;12.70;4.32;;;18.60;99.90;;;;;;5019893;28;20136;-88
2022/08/21 08:05:45;;;;;;;14.18;5.35;;;18.60;99.90;;;;;;5019262;28;20072;-88
2022/08/21 08:08:11;;;;;;;16.88;4.68;;;18.80;99.90;;;;;;5018332;28;20026;-88
2022/08/21 08:10:37;;;;;;;12.20;3.85;;;18.90;99.90;;;;;;5019993;28;20029;-89
2022/08/21 08:13:03;;;;;;;12.13;4.38;;;19.10;99.90;;;;;;5025550;28;20059;-88
2022/08/21 08:15:29;;;;;;;11.43;4.28;;;19.30;99.90;;;;;;5019941;28;20109;-89
2022/08/21 08:17:55;;;;;;;14.93;4.40;;;19.50;99.90;;;;;;5020096;28;20025;-89
2022/08/21 08:20:22;;;;;;;10.30;3.75;;;19.70;99.90;;;;;;5037567;28;20575;-88
2022/08/21 08:22:49;;;;;;;7.88;3.85;;;19.80;99.90;;;;;;5020512;28;20029;-88
2022/08/21 08:25:16;;;;;;;13.30;3.97;;;19.90;99.90;;;;;;5020015;28;20025;-88
2022/08/21 08:27:42;;;;;;;12.38;3.72;;;20.00;99.90;;;;;;5015285;28;20026;-89
2022/08/21 08:30:10;;;;;;;12.40;3.47;;;20.10;99.90;;;;;;5019213;28;20076;-89
2022/08/21 08:32:36;;;;;;;11.30;4.15;;;20.10;99.90;;;;;;5019853;28;20030;-89
2022/08/21 08:35:02;;;;;;;10.68;3.00;;;20.20;99.90;;;;;;5020509;28;20075;-89
2022/08/21 08:37:28;;;;;;;10.80;3.35;;;20.30;99.90;;;;;;5036782;28;20033;-89
2022/08/21 08:39:53;;;;;;;9.30;2.53;;;20.30;99.90;;;;;;5016903;28;20107;-89
2022/08/21 08:42:27;;;;;;;8.88;2.85;;;20.40;99.90;;;;;;5018624;28;20030;-88
2022/08/21 08:45:19;;;;;;;12.52;3.45;;;20.40;99.90;;;;;;5015290;28;20022;-88
2022/08/21 08:47:51;;;;;;;13.15;2.85;;;20.60;99.90;;;;;;5017548;28;20085;-88
2022/08/21 08:50:25;;;;;;;8.82;2.70;;;20.70;99.90;;;;;;5016145;28;20058;-88
2022/08/21 08:53:17;;;;;;;10.02;2.50;;;20.80;99.90;;;;;;5008171;28;20032;-88
2022/08/21 08:55:45;;;;;;;9.43;2.30;;;20.90;99.90;;;;;;5000637;28;20482;-89
2022/08/21 08:58:21;;;;;;;11.25;1.92;;;21.00;99.90;;;;;;5019742;28;20037;-89
2022/08/21 09:00:50;;;;;;;12.25;2.78;;;21.00;99.90;;;;;;5017930;28;20117;-88
2022/08/21 09:03:16;;;;;;;7.00;1.42;;;21.10;99.90;;;;;;5019287;28;20053;-89
2022/08/21 09:05:52;;;;;;;10.93;1.67;;;21.20;99.90;;;;;;5018398;28;20108;-87
2022/08/21 09:08:40;;;;;;;8.07;1.38;;;21.30;99.90;;;;;;5035398;28;20076;-89
2022/08/21 09:11:30;;;;;;;9.18;1.50;;;21.40;99.90;;;;;;5010197;28;20116;-89
2022/08/21 09:14:34;;;;;;;6.85;1.13;;;21.40;99.90;;;;;;5005582;28;20034;-88
2022/08/21 09:17:15;;;;;;;8.70;1.52;;;21.40;99.90;;;;;;5011269;28;20032;-88
2022/08/21 09:19:53;;;;;;;9.85;2.25;;;21.50;99.90;;;;;;5018272;28;20049;-88
2022/08/21 09:22:37;;;;;;;7.78;0.90;;;21.50;99.90;;;;;;5034025;28;20474;-88
2022/08/21 09:25:18;;;;;;;9.18;1.70;;;21.70;99.90;;;;;;5035348;28;20026;-87
2022/08/21 09:27:43;;;;;;;4.88;0.80;;;21.80;99.90;;;;;;5033184;28;20032;-87
2022/08/21 09:30:10;;;;;;;8.93;1.33;;;22.00;99.90;;;;;;5009732;28;20033;-88
2022/08/21 09:32:38;;;;;;;8.05;1.05;;;22.20;99.90;;;;;;5028738;28;20030;-88
2022/08/21 09:35:14;;;;;;;8.70;1.60;;;22.20;99.90;;;;;;5024834;28;20088;-88
2022/08/21 09:38:02;;;;;;;8.55;1.50;;;22.30;99.90;;;;;;5019624;28;20095;-88
2022/08/21 09:40:35;;;;;;;7.05;1.20;;;22.50;99.90;;;;;;5002387;28;20092;-88
2022/08/21 09:43:12;;;;;;;9.32;1.27;;;22.50;99.90;;;;;;5005424;28;20036;-88
2022/08/21 09:45:39;;;;;;;8.30;0.90;;;22.60;99.70;;;;;;5018461;28;20029;-88
2022/08/21 09:48:12;;;;;;;5.72;0.77;;;22.60;99.30;;;;;;5012920;28;20029;-90
2022/08/21 09:50:39;;;;;;;7.95;1.30;;;22.60;99.00;;;;;;5026144;28;20485;-87
2022/08/21 09:53:14;;;;;;;7.40;1.15;;;22.70;98.80;;;;;;5018123;28;20064;-88
2022/08/21 09:58:48;;;;;;;5.95;0.65;;;22.90;98.00;;;;;;5031390;28;20044;-88
2022/08/21 10:01:23;;;;;;;5.80;0.80;;;23.10;97.60;;;;;;5013998;28;20021;-88
2022/08/21 10:04:01;;;;;;;5.75;0.90;;;23.30;97.50;;;;;;5017342;28;20056;-88
2022/08/21 10:06:28;;;;;;;4.60;0.75;;;23.50;97.20;;;;;;5035343;28;20107;-89
2022/08/21 10:09:16;;;;;;;9.63;2.08;;;23.80;96.60;;;;;;5035653;28;20025;-87
2022/08/21 10:11:58;;;;;;;6.25;0.90;;;24.00;95.90;;;;;;5032497;28;20037;-87
2022/08/21 10:14:30;;;;;;;;;;;24.00;95.90;;;;;;5034533;28;20389;-87
2022/08/21 10:17:06;;;;;;;8.45;0.80;;;24.10;96.00;;;;;;5012817;28;19944;-88
2022/08/21 10:19:46;;;;;;;6.40;0.80;;;24.20;95.10;;;;;;5017535;28;20581;-88
2022/08/21 10:22:23;;;;;;;4.82;0.73;;;24.20;94.30;;;;;;5027754;28;20486;-87
2022/08/21 10:25:00;;;;;;;6.78;1.33;;;24.00;94.30;;;;;;5012990;28;20034;-87
2022/08/21 10:27:42;;;;;;;10.30;0.90;;;23.80;94.90;;;;;;5011362;28;20033;-87
2022/08/21 10:30:11;;;;;;;;;;;23.70;94.40;;;;;;5034903;28;20025;-87
2022/08/21 10:33:01;;;;;;;4.38;0.90;;;23.60;94.60;;;;;;5023935;28;19920;-87
2022/08/21 10:35:35;;;;;;;4.82;0.50;;;23.40;94.60;;;;;;5017970;28;20032;-88
2022/08/21 10:38:27;;;;;;;6.03;0.80;;;23.30;94.20;;;;;;5034510;28;20030;-86
2022/08/21 10:41:05;;;;;;;6.03;0.80;;;23.30;94.40;;;;;;5034736;28;20432;-87
2022/08/21 10:43:50;;;;;;;5.03;0.60;;;23.60;94.00;;;;;;5018406;28;20068;-87
2022/08/21 10:46:51;;;;;;;4.15;0.70;;;23.90;93.60;;;;;;5017665;28;20021;-86
2022/08/21 10:49:32;;;;;;;6.65;0.80;;;24.00;92.50;;;;;;5033989;28;20433;-86
2022/08/21 10:52:17;;;;;;;6.32;0.60;;;23.80;92.60;;;;;;5017145;28;20025;-86
2022/08/21 10:55:19;;;;;;;6.30;0.88;;;23.60;93.10;;;;;;5014510;28;20033;-86
2022/08/21 10:58:03;;;;;;;6.30;0.68;;;23.50;93.20;;;;;;5021291;28;20052;-86
2022/08/21 11:00:38;;;;;;;6.50;0.80;;;23.30;93.40;;;;;;4998219;28;20038;-86
2022/08/21 11:03:09;;;;;;;6.35;1.50;;;23.10;93.70;;;;;;5033455;28;20088;-86
2022/08/21 11:05:51;;;;;;;8.82;0.73;;;23.30;93.80;;;;;;5018530;28;20029;-86
2022/08/21 11:08:33;;;;;;;6.03;0.82;;;23.50;93.70;;;;;;5018103;28;20237;-86
2022/08/21 11:11:17;;;;;;;2.92;0.60;;;23.90;93.20;;;;;;5017419;28;20068;-86
2022/08/21 11:13:55;;;;;;;7.03;0.80;;;24.10;92.50;;;;;;5018844;28;20033;-87
2022/08/21 11:16:37;;;;;;;3.95;0.73;;;24.00;92.10;;;;;;5019322;28;20099;-87
2022/08/21 11:19:15;;;;;;;4.53;0.77;;;24.00;91.90;;;;;;5018278;28;20044;-86
2022/08/21 11:21:50;;;;;;;5.05;0.60;;;24.20;91.40;;;;;;5019690;28;20508;-86
2022/08/21 11:24:15;;;;;;;3.85;0.40;;;24.30;90.60;;;;;;5035371;28;20040;-85
2022/08/21 11:26:58;;;;;;;4.32;0.50;;;24.50;89.80;;;;;;5034630;28;20029;-85
2022/08/21 11:29:28;;;;;;;4.50;0.50;;;24.60;88.80;;;;;;5035265;28;20026;-87
2022/08/21 11:32:12;;;;;;;4.45;0.95;;;24.80;87.90;;;;;;5019406;28;20029;-87
2022/08/21 11:34:57;;;;;;;5.28;0.63;;;24.80;86.80;;;;;;5031628;28;20033;-86
2022/08/21 11:37:58;;;;;;;3.63;0.50;;;24.70;86.00;;;;;;5012978;28;20109;-86
2022/08/21 11:40:41;;;;;;;6.88;0.90;;;24.60;86.90;;;;;;5033110;28;20132;-86
2022/08/21 11:43:42;;;;;;;6.70;0.57;;;24.50;86.50;;;;;;5021138;28;20033;-87
2022/08/21 11:46:12;;;;;;;4.75;0.40;;;24.60;86.80;;;;;;5021500;28;20124;-86
2022/08/21 11:48:47;;;;;;;5.38;0.50;;;24.70;85.70;;;;;;5013132;28;20029;-86
2022/08/21 11:51:19;;;;;;;7.05;0.60;;;24.80;85.20;;;;;;5013314;28;20030;-91
2022/08/21 11:54:21;;;;;;;4.00;0.40;;;24.90;84.40;;;;;;5001551;28;20026;-86
2022/08/21 11:56:50;;;;;;;;;;;25.00;84.10;;;;;;5018747;28;20638;-87
2022/08/21 11:59:37;;;;;;;4.55;0.40;;;25.00;84.60;;;;;;5014767;28;20432;-86
2022/08/21 12:02:15;;;;;;;4.40;0.50;;;25.30;84.10;;;;;;5010260;28;20157;-87
2022/08/21 12:05:09;;;;;;;3.72;0.40;;;25.50;82.60;;;;;;5011642;28;20033;-87
2022/08/21 12:07:40;;;;;;;4.63;0.90;;;25.60;80.70;;;;;;5015911;28;20552;-87
2022/08/21 12:10:22;;;;;;;5.28;0.50;;;25.50;80.60;;;;;;5004901;28;20025;-86
2022/08/21 12:12:48;;;;;;;6.30;0.97;;;25.20;81.10;;;;;;5016790;28;20057;-86
2022/08/21 12:15:22;;;;;;;2.72;0.60;;;25.10;82.20;;;;;;5021108;28;20021;-87
2022/08/21 12:17:55;;;;;;;4.22;0.40;;;25.10;80.90;;;;;;5024493;28;20032;-87
2022/08/21 12:20:20;;;;;;;4.90;0.40;;;25.10;80.80;;;;;;5036081;28;20029;-86
2022/08/21 12:23:01;;;;;;;3.42;0.38;;;25.30;80.20;;;;;;5018165;28;20044;-87
2022/08/21 12:25:40;;;;;;;2.85;0.30;;;25.40;78.80;;;;;;5008952;28;20030;-87
2022/08/21 12:28:10;;;;;;;2.42;0.40;;;25.50;77.80;;;;;;5011027;28;20052;-86
2022/08/21 12:30:38;;;;;;;2.92;0.47;;;25.40;77.00;;;;;;5008016;28;20084;-86
2022/08/21 12:33:18;;;;;;;2.70;0.50;;;25.20;76.90;;;;;;5034544;28;20120;-86
2022/08/21 12:35:48;;;;;;;3.03;0.55;;;25.20;77.00;;;;;;5028343;28;20363;-86
2022/08/21 12:38:18;;;;;;;3.35;0.40;;;25.30;77.00;;;;;;5012789;28;20030;-86
2022/08/21 12:41:07;;;;;;;3.05;0.45;;;25.30;76.20;;;;;;5035117;28;20544;-87
2022/08/21 12:43:40;;;;;;;2.78;0.30;;;25.10;75.90;;;;;;5009513;28;20711;-86
2022/08/21 12:46:14;;;;;;;18.92;0.98;;;25.00;75.70;;;;;;5020412;28;20025;-86
2022/08/21 12:48:46;;;;;;;2.38;0.30;;;24.80;76.10;;;;;;5016682;28;20559;-86
2022/08/21 12:51:25;;;;;;;3.00;0.30;;;24.80;76.40;;;;;;5016817;28;20025;-86
2022/08/21 12:53:56;;;;;;;3.78;0.40;;;24.90;75.90;;;;;;5015465;28;20545;-87
2022/08/21 12:56:25;;;;;;;3.45;0.30;;;24.90;75.70;;;;;;5012265;28;20493;-86
2022/08/21 12:59:04;;;;;;;5.47;0.65;;;25.00;75.60;;;;;;5016805;28;20045;-87